sensor_id;sensor_type;location;lat;lon;timestamp;temperature;humidity
14517;DHT22;7344;50.864;4.362;2023-03-11T00:00:43;2.30;99.90
14517;DHT22;7344;50.864;4.362;2023-03-11T00:03:11;2.30;99.90
14517;DHT22;7344;50.864;4.362;2023-03-11T00:05:39;2.30;99.90
14517;DHT22;7344;50.864;4.362;2023-03-11T00:08:07;2.30;99.90
14517;DHT22;7344;50.864;4.362;2023-03-11T00:10:38;2.20;99.90
14517;DHT22;7344;50.864;4.362;2023-03-11T00:13:05;2.20;99.90
14517;DHT22;7344;50.864;4.362;2023-03-11T00:15:35;2.20;99.90
14517;DHT22;7344;50.864;4.362;2023-03-11T00:18:01;2.20;99.90
14517;DHT22;7344;50.864;4.362;2023-03-11T00:20:37;2.20;99.90
14517;DHT22;7344;50.864;4.362;2023-03-11T00:23:05;2.20;99.90
14517;DHT22;7344;50.864;4.362;2023-03-11T00:25:33;2.10;99.90
14517;DHT22;7344;50.864;4.362;2023-03-11T00:27:59;2.10;99.90
14517;DHT22;7344;50.864;4.362;2023-03-11T00:30:26;2.10;99.90
14517;DHT22;7344;50.864;4.362;2023-03-11T00:32:57;2.10;99.90
14517;DHT22;7344;50.864;4.362;2023-03-11T00:35:25;2.10;99.90
14517;DHT22;7344;50.864;4.362;2023-03-11T00:38:03;2.10;99.90
14517;DHT22;7344;50.864;4.362;2023-03-11T00:40:30;2.10;99.90
14517;DHT22;7344;50.864;4.362;2023-03-11T00:43:15;2.00;99.90
14517;DHT22;7344;50.864;4.362;2023-03-11T00:45:41;2.00;99.90
14517;DHT22;7344;50.864;4.362;2023-03-11T00:48:10;2.00;99.90
14517;DHT22;7344;50.864;4.362;2023-03-11T00:50:37;1.90;99.90
14517;DHT22;7344;50.864;4.362;2023-03-11T00:53:03;1.90;99.90
14517;DHT22;7344;50.864;4.362;2023-03-11T00:55:34;1.90;99.90
14517;DHT22;7344;50.864;4.362;2023-03-11T00:58:03;1.90;99.90
14517;DHT22;7344;50.864;4.362;2023-03-11T01:00:30;1.90;99.90
14517;DHT22;7344;50.864;4.362;2023-03-11T01:02:56;1.80;99.90
14517;DHT22;7344;50.864;4.362;2023-03-11T01:05:25;1.80;99.90
14517;DHT22;7344;50.864;4.362;2023-03-11T01:07:50;1.80;99.90
14517;DHT22;7344;50.864;4.362;2023-03-11T01:10:16;1.70;99.90
14517;DHT22;7344;50.864;4.362;2023-03-11T01:12:45;1.70;99.90
14517;DHT22;7344;50.864;4.362;2023-03-11T01:15:32;1.70;99.90
14517;DHT22;7344;50.864;4.362;2023-03-11T01:17:58;1.70;99.90
14517;DHT22;7344;50.864;4.362;2023-03-11T01:20:27;1.60;99.90
14517;DHT22;7344;50.864;4.362;2023-03-11T01:22:53;1.50;99.90
14517;DHT22;7344;50.864;4.362;2023-03-11T01:25:21;1.60;99.90
14517;DHT22;7344;50.864;4.362;2023-03-11T01:27:47;1.60;99.90
14517;DHT22;7344;50.864;4.362;2023-03-11T01:30:16;1.60;99.90
14517;DHT22;7344;50.864;4.362;2023-03-11T01:32:42;1.60;99.90
14517;DHT22;7344;50.864;4.362;2023-03-11T01:35:11;1.60;99.90
14517;DHT22;7344;50.864;4.362;2023-03-11T01:37:37;1.60;99.90
14517;DHT22;7344;50.864;4.362;2023-03-11T01:40:03;1.60;99.90
14517;DHT22;7344;50.864;4.362;2023-03-11T01:42:29;1.60;99.90
14517;DHT22;7344;50.864;4.362;2023-03-11T01:44:55;1.60;99.90
14517;DHT22;7344;50.864;4.362;2023-03-11T01:47:36;1.70;99.90
14517;DHT22;7344;50.864;4.362;2023-03-11T01:50:05;1.60;99.90
14517;DHT22;7344;50.864;4.362;2023-03-11T01:52:34;1.70;99.90
14517;DHT22;7344;50.864;4.362;2023-03-11T01:55:00;1.70;99.90
14517;DHT22;7344;50.864;4.362;2023-03-11T01:57:25;1.80;99.90
14517;DHT22;7344;50.864;4.362;2023-03-11T01:59:55;1.90;99.90
14517;DHT22;7344;50.864;4.362;2023-03-11T02:02:33;2.00;99.90
14517;DHT22;7344;50.864;4.362;2023-03-11T02:05:01;2.00;99.90
14517;DHT22;7344;50.864;4.362;2023-03-11T02:07:27;2.00;99.90
14517;DHT22;7344;50.864;4.362;2023-03-11T02:09:53;2.10;99.90
14517;DHT22;7344;50.864;4.362;2023-03-11T02:12:22;2.00;99.90
14517;DHT22;7344;50.864;4.362;2023-03-11T02:14:50;2.10;99.90
14517;DHT22;7344;50.864;4.362;2023-03-11T02:17:19;2.20;99.90
14517;DHT22;7344;50.864;4.362;2023-03-11T02:22:28;2.20;99.90
14517;DHT22;7344;50.864;4.362;2023-03-11T02:27:56;2.30;99.90
14517;DHT22;7344;50.864;4.362;2023-03-11T02:30:24;2.30;99.90
14517;DHT22;7344;50.864;4.362;2023-03-11T02:32:54;2.30;99.90
14517;DHT22;7344;50.864;4.362;2023-03-11T02:35:20;2.40;99.90
14517;DHT22;7344;50.864;4.362;2023-03-11T02:37:47;2.50;99.90
14517;DHT22;7344;50.864;4.362;2023-03-11T02:40:45;2.50;99.90
14517;DHT22;7344;50.864;4.362;2023-03-11T02:43:15;2.40;99.90
14517;DHT22;7344;50.864;4.362;2023-03-11T02:45:44;2.40;99.90
14517;DHT22;7344;50.864;4.362;2023-03-11T02:48:11;2.50;99.90
14517;DHT22;7344;50.864;4.362;2023-03-11T02:50:37;2.40;99.90
14517;DHT22;7344;50.864;4.362;2023-03-11T02:53:05;2.40;99.90
14517;DHT22;7344;50.864;4.362;2023-03-11T02:55:34;2.40;99.90
14517;DHT22;7344;50.864;4.362;2023-03-11T02:58:00;2.30;99.90
14517;DHT22;7344;50.864;4.362;2023-03-11T03:00:28;2.40;99.90
14517;DHT22;7344;50.864;4.362;2023-03-11T03:02:54;2.40;99.90
14517;DHT22;7344;50.864;4.362;2023-03-11T03:05:21;2.30;99.90
14517;DHT22;7344;50.864;4.362;2023-03-11T03:07:47;2.30;99.90
14517;DHT22;7344;50.864;4.362;2023-03-11T03:10:15;2.20;99.90
14517;DHT22;7344;50.864;4.362;2023-03-11T03:12:40;2.20;99.90
14517;DHT22;7344;50.864;4.362;2023-03-11T03:15:07;2.20;99.90
14517;DHT22;7344;50.864;4.362;2023-03-11T03:17:32;2.20;99.90
14517;DHT22;7344;50.864;4.362;2023-03-11T03:19:58;2.20;99.90
14517;DHT22;7344;50.864;4.362;2023-03-11T03:22:24;2.20;99.90
14517;DHT22;7344;50.864;4.362;2023-03-11T03:24:52;2.20;99.90
14517;DHT22;7344;50.864;4.362;2023-03-11T03:27:20;2.30;99.90
14517;DHT22;7344;50.864;4.362;2023-03-11T03:29:46;2.30;99.90
14517;DHT22;7344;50.864;4.362;2023-03-11T03:32:14;2.30;99.90
14517;DHT22;7344;50.864;4.362;2023-03-11T03:34:40;2.40;99.90
14517;DHT22;7344;50.864;4.362;2023-03-11T03:37:08;2.40;99.90
14517;DHT22;7344;50.864;4.362;2023-03-11T03:39:34;2.60;99.90
14517;DHT22;7344;50.864;4.362;2023-03-11T03:41:59;2.60;99.90
14517;DHT22;7344;50.864;4.362;2023-03-11T03:44:25;2.60;99.90
14517;DHT22;7344;50.864;4.362;2023-03-11T03:46:54;2.60;99.90
14517;DHT22;7344;50.864;4.362;2023-03-11T03:49:23;2.60;99.90
14517;DHT22;7344;50.864;4.362;2023-03-11T03:51:49;2.60;99.90
14517;DHT22;7344;50.864;4.362;2023-03-11T03:54:14;2.60;99.90
14517;DHT22;7344;50.864;4.362;2023-03-11T03:56:40;2.60;99.90
14517;DHT22;7344;50.864;4.362;2023-03-11T03:59:06;2.50;99.90
14517;DHT22;7344;50.864;4.362;2023-03-11T04:01:31;2.60;99.90
14517;DHT22;7344;50.864;4.362;2023-03-11T04:03:57;2.50;99.90
14517;DHT22;7344;50.864;4.362;2023-03-11T04:06:24;2.50;99.90
14517;DHT22;7344;50.864;4.362;2023-03-11T04:08:51;2.50;99.90
14517;DHT22;7344;50.864;4.362;2023-03-11T04:11:17;2.50;99.90
14517;DHT22;7344;50.864;4.362;2023-03-11T04:13:42;2.40;99.90
14517;DHT22;7344;50.864;4.362;2023-03-11T04:16:11;2.40;99.90
14517;DHT22;7344;50.864;4.362;2023-03-11T04:18:40;2.30;99.90
14517;DHT22;7344;50.864;4.362;2023-03-11T04:21:06;2.30;99.90
14517;DHT22;7344;50.864;4.362;2023-03-11T04:23:32;2.20;99.90
14517;DHT22;7344;50.864;4.362;2023-03-11T04:26:06;2.20;99.90
14517;DHT22;7344;50.864;4.362;2023-03-11T04:28:35;2.00;99.90
14517;DHT22;7344;50.864;4.362;2023-03-11T04:31:04;2.00;99.90
14517;DHT22;7344;50.864;4.362;2023-03-11T04:33:29;2.00;99.90
14517;DHT22;7344;50.864;4.362;2023-03-11T04:35:55;1.90;99.90
14517;DHT22;7344;50.864;4.362;2023-03-11T04:38:21;1.80;99.90
14517;DHT22;7344;50.864;4.362;2023-03-11T04:40:49;1.70;99.90
14517;DHT22;7344;50.864;4.362;2023-03-11T04:43:14;1.70;99.90
14517;DHT22;7344;50.864;4.362;2023-03-11T04:45:40;1.70;99.90
14517;DHT22;7344;50.864;4.362;2023-03-11T04:48:07;1.80;99.90
14517;DHT22;7344;50.864;4.362;2023-03-11T04:50:33;1.80;99.90
14517;DHT22;7344;50.864;4.362;2023-03-11T04:52:58;1.70;99.90
14517;DHT22;7344;50.864;4.362;2023-03-11T04:55:24;1.70;99.90
14517;DHT22;7344;50.864;4.362;2023-03-11T04:57:50;1.70;99.90
14517;DHT22;7344;50.864;4.362;2023-03-11T05:00:17;1.60;99.90
14517;DHT22;7344;50.864;4.362;2023-03-11T05:02:47;1.50;99.90
14517;DHT22;7344;50.864;4.362;2023-03-11T05:05:12;1.40;99.90
14517;DHT22;7344;50.864;4.362;2023-03-11T05:07:38;1.40;99.90
14517;DHT22;7344;50.864;4.362;2023-03-11T05:10:04;1.50;99.90
14517;DHT22;7344;50.864;4.362;2023-03-11T05:12:30;1.50;99.90
14517;DHT22;7344;50.864;4.362;2023-03-11T05:14:55;1.50;99.90
14517;DHT22;7344;50.864;4.362;2023-03-11T05:17:21;1.40;99.90
14517;DHT22;7344;50.864;4.362;2023-03-11T05:19:46;1.50;99.90
14517;DHT22;7344;50.864;4.362;2023-03-11T05:22:13;1.50;99.90
14517;DHT22;7344;50.864;4.362;2023-03-11T05:24:38;1.40;99.90
14517;DHT22;7344;50.864;4.362;2023-03-11T05:27:04;1.40;99.90
14517;DHT22;7344;50.864;4.362;2023-03-11T05:29:31;1.40;99.90
14517;DHT22;7344;50.864;4.362;2023-03-11T05:31:56;1.40;99.90
14517;DHT22;7344;50.864;4.362;2023-03-11T05:34:22;1.40;99.90
14517;DHT22;7344;50.864;4.362;2023-03-11T05:36:47;1.40;99.90
14517;DHT22;7344;50.864;4.362;2023-03-11T05:39:13;1.40;99.90
14517;DHT22;7344;50.864;4.362;2023-03-11T05:41:39;1.40;99.90
14517;DHT22;7344;50.864;4.362;2023-03-11T05:44:05;1.40;99.90
14517;DHT22;7344;50.864;4.362;2023-03-11T05:46:31;1.30;99.90
14517;DHT22;7344;50.864;4.362;2023-03-11T05:48:59;1.30;99.90
14517;DHT22;7344;50.864;4.362;2023-03-11T05:51:25;1.30;99.90
14517;DHT22;7344;50.864;4.362;2023-03-11T05:53:50;1.30;99.90
14517;DHT22;7344;50.864;4.362;2023-03-11T05:56:18;1.40;99.90
14517;DHT22;7344;50.864;4.362;2023-03-11T05:58:45;1.30;99.90
14517;DHT22;7344;50.864;4.362;2023-03-11T06:01:15;1.40;99.90
14517;DHT22;7344;50.864;4.362;2023-03-11T06:03:42;1.40;99.90
14517;DHT22;7344;50.864;4.362;2023-03-11T06:06:10;1.40;99.90
14517;DHT22;7344;50.864;4.362;2023-03-11T06:08:35;1.30;99.90
14517;DHT22;7344;50.864;4.362;2023-03-11T06:11:09;1.20;99.90
14517;DHT22;7344;50.864;4.362;2023-03-11T06:13:36;1.30;99.90
14517;DHT22;7344;50.864;4.362;2023-03-11T06:16:02;1.30;99.90
14517;DHT22;7344;50.864;4.362;2023-03-11T06:18:28;1.30;99.90
14517;DHT22;7344;50.864;4.362;2023-03-11T06:20:57;1.40;99.90
14517;DHT22;7344;50.864;4.362;2023-03-11T06:23:23;1.50;99.90
14517;DHT22;7344;50.864;4.362;2023-03-11T06:26:00;1.50;99.90
14517;DHT22;7344;50.864;4.362;2023-03-11T06:28:27;1.50;99.90
14517;DHT22;7344;50.864;4.362;2023-03-11T06:30:53;1.60;99.90
14517;DHT22;7344;50.864;4.362;2023-03-11T06:33:22;1.70;99.90
14517;DHT22;7344;50.864;4.362;2023-03-11T06:35:58;1.90;99.90
14517;DHT22;7344;50.864;4.362;2023-03-11T06:38:25;2.00;99.90
14517;DHT22;7344;50.864;4.362;2023-03-11T06:40:51;2.20;99.90
14517;DHT22;7344;50.864;4.362;2023-03-11T06:43:17;2.30;99.90
14517;DHT22;7344;50.864;4.362;2023-03-11T06:45:43;2.50;99.90
14517;DHT22;7344;50.864;4.362;2023-03-11T06:48:08;2.60;99.90
14517;DHT22;7344;50.864;4.362;2023-03-11T06:50:34;2.60;99.90
14517;DHT22;7344;50.864;4.362;2023-03-11T06:53:00;2.70;99.90
14517;DHT22;7344;50.864;4.362;2023-03-11T06:55:27;2.80;99.90
14517;DHT22;7344;50.864;4.362;2023-03-11T06:57:53;2.80;99.90
14517;DHT22;7344;50.864;4.362;2023-03-11T07:00:18;3.10;99.90
14517;DHT22;7344;50.864;4.362;2023-03-11T07:02:44;3.40;99.90
14517;DHT22;7344;50.864;4.362;2023-03-11T07:05:10;3.40;99.90
14517;DHT22;7344;50.864;4.362;2023-03-11T07:07:36;3.50;99.90
14517;DHT22;7344;50.864;4.362;2023-03-11T07:10:03;3.90;99.90
14517;DHT22;7344;50.864;4.362;2023-03-11T07:12:29;4.40;99.90
14517;DHT22;7344;50.864;4.362;2023-03-11T07:14:55;5.30;99.90
14517;DHT22;7344;50.864;4.362;2023-03-11T07:17:21;6.70;99.90
14517;DHT22;7344;50.864;4.362;2023-03-11T07:19:47;8.20;99.90
14517;DHT22;7344;50.864;4.362;2023-03-11T07:22:12;9.10;99.90
14517;DHT22;7344;50.864;4.362;2023-03-11T07:24:39;10.10;99.90
14517;DHT22;7344;50.864;4.362;2023-03-11T07:27:05;11.60;99.90
14517;DHT22;7344;50.864;4.362;2023-03-11T07:29:31;12.60;97.30
14517;DHT22;7344;50.864;4.362;2023-03-11T07:31:56;13.80;93.70
14517;DHT22;7344;50.864;4.362;2023-03-11T07:34:22;14.00;91.70
14517;DHT22;7344;50.864;4.362;2023-03-11T07:36:47;14.30;87.40
14517;DHT22;7344;50.864;4.362;2023-03-11T07:39:15;13.30;89.60
14517;DHT22;7344;50.864;4.362;2023-03-11T07:41:41;14.10;89.80
14517;DHT22;7344;50.864;4.362;2023-03-11T07:44:07;15.00;82.90
14517;DHT22;7344;50.864;4.362;2023-03-11T07:46:32;16.00;75.90
14517;DHT22;7344;50.864;4.362;2023-03-11T07:48:59;16.40;70.80
14517;DHT22;7344;50.864;4.362;2023-03-11T07:51:28;17.00;1.00
14517;DHT22;7344;50.864;4.362;2023-03-11T07:53:55;17.60;1.00
14517;DHT22;7344;50.864;4.362;2023-03-11T07:56:22;17.50;1.00
14517;DHT22;7344;50.864;4.362;2023-03-11T07:58:49;18.00;1.00
14517;DHT22;7344;50.864;4.362;2023-03-11T08:01:18;18.30;99.90
14517;DHT22;7344;50.864;4.362;2023-03-11T08:03:45;18.40;99.90
14517;DHT22;7344;50.864;4.362;2023-03-11T08:06:18;19.50;99.90
14517;DHT22;7344;50.864;4.362;2023-03-11T08:08:44;20.00;99.90
14517;DHT22;7344;50.864;4.362;2023-03-11T08:11:11;20.80;99.90
14517;DHT22;7344;50.864;4.362;2023-03-11T08:13:41;19.90;99.90
14517;DHT22;7344;50.864;4.362;2023-03-11T08:16:09;19.50;99.90
14517;DHT22;7344;50.864;4.362;2023-03-11T08:18:35;19.60;99.90
14517;DHT22;7344;50.864;4.362;2023-03-11T08:21:08;19.80;99.90
14517;DHT22;7344;50.864;4.362;2023-03-11T08:23:35;18.70;99.90
14517;DHT22;7344;50.864;4.362;2023-03-11T08:26:10;17.90;99.90
14517;DHT22;7344;50.864;4.362;2023-03-11T08:28:36;18.30;99.90
14517;DHT22;7344;50.864;4.362;2023-03-11T08:31:09;17.90;99.90
14517;DHT22;7344;50.864;4.362;2023-03-11T08:33:35;18.50;99.90
14517;DHT22;7344;50.864;4.362;2023-03-11T08:36:01;18.90;99.90
14517;DHT22;7344;50.864;4.362;2023-03-11T08:38:26;18.90;99.90
14517;DHT22;7344;50.864;4.362;2023-03-11T08:40:52;19.10;99.90
14517;DHT22;7344;50.864;4.362;2023-03-11T08:43:18;19.60;99.90
14517;DHT22;7344;50.864;4.362;2023-03-11T08:45:43;19.80;99.90
14517;DHT22;7344;50.864;4.362;2023-03-11T08:48:10;20.30;99.90
14517;DHT22;7344;50.864;4.362;2023-03-11T08:50:36;20.50;99.90
14517;DHT22;7344;50.864;4.362;2023-03-11T08:53:03;20.80;99.90
14517;DHT22;7344;50.864;4.362;2023-03-11T08:55:29;20.90;99.90
14517;DHT22;7344;50.864;4.362;2023-03-11T08:57:55;21.00;99.90
14517;DHT22;7344;50.864;4.362;2023-03-11T09:00:21;20.80;99.90
14517;DHT22;7344;50.864;4.362;2023-03-11T09:02:47;20.60;99.90
14517;DHT22;7344;50.864;4.362;2023-03-11T09:05:12;19.80;99.90
14517;DHT22;7344;50.864;4.362;2023-03-11T09:07:38;19.80;99.90
14517;DHT22;7344;50.864;4.362;2023-03-11T09:10:05;20.20;99.90
14517;DHT22;7344;50.864;4.362;2023-03-11T09:12:31;19.70;99.90
14517;DHT22;7344;50.864;4.362;2023-03-11T09:14:59;20.20;99.90
14517;DHT22;7344;50.864;4.362;2023-03-11T09:17:25;20.10;99.90
14517;DHT22;7344;50.864;4.362;2023-03-11T09:19:51;20.50;99.90
14517;DHT22;7344;50.864;4.362;2023-03-11T09:22:16;21.00;99.90
14517;DHT22;7344;50.864;4.362;2023-03-11T09:24:42;20.50;99.90
14517;DHT22;7344;50.864;4.362;2023-03-11T09:27:10;20.70;99.90
14517;DHT22;7344;50.864;4.362;2023-03-11T09:29:37;20.60;99.90
14517;DHT22;7344;50.864;4.362;2023-03-11T09:32:03;20.70;99.90
14517;DHT22;7344;50.864;4.362;2023-03-11T09:34:29;19.90;99.90
14517;DHT22;7344;50.864;4.362;2023-03-11T09:36:54;19.60;99.90
14517;DHT22;7344;50.864;4.362;2023-03-11T09:39:20;19.20;99.90
14517;DHT22;7344;50.864;4.362;2023-03-11T09:41:52;18.10;99.90
14517;DHT22;7344;50.864;4.362;2023-03-11T09:53:32;18.20;99.90
14517;DHT22;7344;50.864;4.362;2023-03-11T10:00:39;18.40;99.90
14517;DHT22;7344;50.864;4.362;2023-03-11T10:03:13;17.60;99.90
14517;DHT22;7344;50.864;4.362;2023-03-11T10:05:43;17.70;99.90
14517;DHT22;7344;50.864;4.362;2023-03-11T10:11:58;17.80;99.90
14517;DHT22;7344;50.864;4.362;2023-03-11T10:26:06;18.30;99.90
14517;DHT22;7344;50.864;4.362;2023-03-11T10:28:49;18.80;99.90
14517;DHT22;7344;50.864;4.362;2023-03-11T10:34:31;18.80;99.90
14517;DHT22;7344;50.864;4.362;2023-03-11T10:37:03;18.70;99.90
14517;DHT22;7344;50.864;4.362;2023-03-11T10:39:31;17.80;99.90
14517;DHT22;7344;50.864;4.362;2023-03-11T10:42:02;16.60;99.90
14517;DHT22;7344;50.864;4.362;2023-03-11T10:44:37;15.20;99.90
14517;DHT22;7344;50.864;4.362;2023-03-11T10:47:04;14.30;99.90
14517;DHT22;7344;50.864;4.362;2023-03-11T10:49:31;14.30;99.90
14517;DHT22;7344;50.864;4.362;2023-03-11T10:51:57;13.80;99.90
14517;DHT22;7344;50.864;4.362;2023-03-11T10:56:58;14.20;99.90
14517;DHT22;7344;50.864;4.362;2023-03-11T10:59:45;14.80;99.90
14517;DHT22;7344;50.864;4.362;2023-03-11T11:02:32;14.10;99.90
14517;DHT22;7344;50.864;4.362;2023-03-11T11:05:04;14.40;99.90
14517;DHT22;7344;50.864;4.362;2023-03-11T11:07:34;14.70;99.90
14517;DHT22;7344;50.864;4.362;2023-03-11T11:17:53;13.00;99.90
14517;DHT22;7344;50.864;4.362;2023-03-11T11:20:21;13.60;99.90
14517;DHT22;7344;50.864;4.362;2023-03-11T11:22:51;14.40;99.90
14517;DHT22;7344;50.864;4.362;2023-03-11T11:25:33;15.10;99.90
14517;DHT22;7344;50.864;4.362;2023-03-11T11:28:02;16.50;99.90
14517;DHT22;7344;50.864;4.362;2023-03-11T11:30:30;15.40;99.90
14517;DHT22;7344;50.864;4.362;2023-03-11T11:32:56;13.90;99.90
14517;DHT22;7344;50.864;4.362;2023-03-11T11:35:49;13.10;99.90
14517;DHT22;7344;50.864;4.362;2023-03-11T11:38:15;12.90;99.90
14517;DHT22;7344;50.864;4.362;2023-03-11T11:40:41;12.10;99.90
14517;DHT22;7344;50.864;4.362;2023-03-11T11:43:19;12.20;99.90
14517;DHT22;7344;50.864;4.362;2023-03-11T11:45:51;12.30;99.90
14517;DHT22;7344;50.864;4.362;2023-03-11T11:48:25;12.60;99.90
14517;DHT22;7344;50.864;4.362;2023-03-11T11:50:58;12.30;99.90
14517;DHT22;7344;50.864;4.362;2023-03-11T11:55:53;11.50;1.00
14517;DHT22;7344;50.864;4.362;2023-03-11T11:58:20;11.30;1.00
14517;DHT22;7344;50.864;4.362;2023-03-11T12:06:21;10.50;1.00
14517;DHT22;7344;50.864;4.362;2023-03-11T12:11:31;10.60;1.00
14517;DHT22;7344;50.864;4.362;2023-03-11T12:14:27;10.10;1.00
14517;DHT22;7344;50.864;4.362;2023-03-11T12:17:00;9.90;1.00
14517;DHT22;7344;50.864;4.362;2023-03-11T12:30:55;12.00;1.00
14517;DHT22;7344;50.864;4.362;2023-03-11T12:36:21;12.30;1.00
14517;DHT22;7344;50.864;4.362;2023-03-11T12:38:48;12.00;1.00
14517;DHT22;7344;50.864;4.362;2023-03-11T12:46:13;11.00;1.00
14517;DHT22;7344;50.864;4.362;2023-03-11T12:48:46;10.90;1.00
14517;DHT22;7344;50.864;4.362;2023-03-11T12:53:53;10.90;1.00
14517;DHT22;7344;50.864;4.362;2023-03-11T12:56:42;10.80;1.00
14517;DHT22;7344;50.864;4.362;2023-03-11T13:05:13;10.60;1.00
14517;DHT22;7344;50.864;4.362;2023-03-11T13:08:14;10.50;99.90
14517;DHT22;7344;50.864;4.362;2023-03-11T13:10:43;10.20;99.90
14517;DHT22;7344;50.864;4.362;2023-03-11T13:15:50;10.40;1.00
14517;DHT22;7344;50.864;4.362;2023-03-11T13:18:24;10.90;1.00
14517;DHT22;7344;50.864;4.362;2023-03-11T13:23:20;11.20;1.00
14517;DHT22;7344;50.864;4.362;2023-03-11T13:33:51;11.00;1.00
14517;DHT22;7344;50.864;4.362;2023-03-11T13:41:58;10.00;99.90
14517;DHT22;7344;50.864;4.362;2023-03-11T13:44:36;10.30;99.90
14517;DHT22;7344;50.864;4.362;2023-03-11T13:47:09;10.30;99.90
14517;DHT22;7344;50.864;4.362;2023-03-11T13:49:54;10.70;1.00
14517;DHT22;7344;50.864;4.362;2023-03-11T13:55:18;10.70;1.00
14517;DHT22;7344;50.864;4.362;2023-03-11T13:57:53;10.60;1.00
14517;DHT22;7344;50.864;4.362;2023-03-11T14:00:24;10.50;1.00
14517;DHT22;7344;50.864;4.362;2023-03-11T14:03:10;10.00;1.00
14517;DHT22;7344;50.864;4.362;2023-03-11T14:05:43;9.90;99.90
14517;DHT22;7344;50.864;4.362;2023-03-11T14:16:29;9.80;1.00
14517;DHT22;7344;50.864;4.362;2023-03-11T14:19:13;9.80;1.00
14517;DHT22;7344;50.864;4.362;2023-03-11T14:21:43;9.80;1.00
14517;DHT22;7344;50.864;4.362;2023-03-11T14:24:17;9.60;1.00
14517;DHT22;7344;50.864;4.362;2023-03-11T14:26:46;9.30;1.00
14517;DHT22;7344;50.864;4.362;2023-03-11T14:29:18;9.20;1.00
14517;DHT22;7344;50.864;4.362;2023-03-11T14:31:45;9.10;1.00
14517;DHT22;7344;50.864;4.362;2023-03-11T14:34:17;9.00;1.00
14517;DHT22;7344;50.864;4.362;2023-03-11T14:36:46;9.20;1.00
14517;DHT22;7344;50.864;4.362;2023-03-11T14:39:35;9.30;1.00
14517;DHT22;7344;50.864;4.362;2023-03-11T14:42:17;9.50;1.00
14517;DHT22;7344;50.864;4.362;2023-03-11T14:44:47;9.70;1.00
14517;DHT22;7344;50.864;4.362;2023-03-11T14:49:56;9.60;1.00
14517;DHT22;7344;50.864;4.362;2023-03-11T14:52:47;9.40;1.00
14517;DHT22;7344;50.864;4.362;2023-03-11T14:55:49;9.30;1.00
14517;DHT22;7344;50.864;4.362;2023-03-11T15:03:39;9.10;1.00
14517;DHT22;7344;50.864;4.362;2023-03-11T15:06:32;8.90;1.00
14517;DHT22;7344;50.864;4.362;2023-03-11T15:14:25;8.70;1.00
14517;DHT22;7344;50.864;4.362;2023-03-11T15:16:52;8.90;1.00
14517;DHT22;7344;50.864;4.362;2023-03-11T15:21:53;8.90;1.00
14517;DHT22;7344;50.864;4.362;2023-03-11T15:24:22;8.80;1.00
14517;DHT22;7344;50.864;4.362;2023-03-11T15:26:55;8.80;1.00
14517;DHT22;7344;50.864;4.362;2023-03-11T15:29:21;8.70;99.90
14517;DHT22;7344;50.864;4.362;2023-03-11T15:31:47;8.80;99.90
14517;DHT22;7344;50.864;4.362;2023-03-11T15:44:36;8.40;10.80
14517;DHT22;7344;50.864;4.362;2023-03-11T15:47:16;8.30;92.70
14517;DHT22;7344;50.864;4.362;2023-03-11T15:49:42;8.10;1.00
14517;DHT22;7344;50.864;4.362;2023-03-11T15:52:08;8.00;99.90
14517;DHT22;7344;50.864;4.362;2023-03-11T15:54:34;8.20;99.90
14517;DHT22;7344;50.864;4.362;2023-03-11T15:57:00;8.30;99.90
14517;DHT22;7344;50.864;4.362;2023-03-11T15:59:29;8.20;99.90
14517;DHT22;7344;50.864;4.362;2023-03-11T16:01:55;8.10;1.00
14517;DHT22;7344;50.864;4.362;2023-03-11T16:04:21;8.20;1.00
14517;DHT22;7344;50.864;4.362;2023-03-11T16:06:47;8.30;99.90
14517;DHT22;7344;50.864;4.362;2023-03-11T16:09:16;8.30;1.00
14517;DHT22;7344;50.864;4.362;2023-03-11T16:11:42;8.30;1.00
14517;DHT22;7344;50.864;4.362;2023-03-11T16:14:19;8.40;1.00
14517;DHT22;7344;50.864;4.362;2023-03-11T16:16:45;8.30;99.90
14517;DHT22;7344;50.864;4.362;2023-03-11T16:19:12;8.50;1.00
14517;DHT22;7344;50.864;4.362;2023-03-11T16:21:43;8.50;1.00
14517;DHT22;7344;50.864;4.362;2023-03-11T16:24:22;8.60;99.90
14517;DHT22;7344;50.864;4.362;2023-03-11T16:26:49;8.40;99.90
14517;DHT22;7344;50.864;4.362;2023-03-11T16:29:17;8.50;1.00
14517;DHT22;7344;50.864;4.362;2023-03-11T16:31:42;8.60;1.00
14517;DHT22;7344;50.864;4.362;2023-03-11T16:34:08;8.70;1.00
14517;DHT22;7344;50.864;4.362;2023-03-11T16:36:36;8.60;1.00
14517;DHT22;7344;50.864;4.362;2023-03-11T16:39:02;8.60;99.90
14517;DHT22;7344;50.864;4.362;2023-03-11T16:41:41;8.50;99.90
14517;DHT22;7344;50.864;4.362;2023-03-11T16:44:07;8.30;99.90
14517;DHT22;7344;50.864;4.362;2023-03-11T16:46:33;8.20;99.90
14517;DHT22;7344;50.864;4.362;2023-03-11T16:48:59;8.20;99.90
14517;DHT22;7344;50.864;4.362;2023-03-11T16:51:24;8.20;99.90
14517;DHT22;7344;50.864;4.362;2023-03-11T16:53:50;8.40;99.90
14517;DHT22;7344;50.864;4.362;2023-03-11T16:56:18;8.30;1.00
14517;DHT22;7344;50.864;4.362;2023-03-11T16:58:44;8.30;1.00
14517;DHT22;7344;50.864;4.362;2023-03-11T17:01:12;8.20;1.00
14517;DHT22;7344;50.864;4.362;2023-03-11T17:03:41;8.20;1.00
14517;DHT22;7344;50.864;4.362;2023-03-11T17:06:07;8.20;1.00
14517;DHT22;7344;50.864;4.362;2023-03-11T17:08:33;8.00;1.00
14517;DHT22;7344;50.864;4.362;2023-03-11T17:11:20;8.00;1.00
14517;DHT22;7344;50.864;4.362;2023-03-11T17:13:46;8.00;1.00
14517;DHT22;7344;50.864;4.362;2023-03-11T17:16:12;8.00;99.90
14517;DHT22;7344;50.864;4.362;2023-03-11T17:18:37;8.00;1.00
14517;DHT22;7344;50.864;4.362;2023-03-11T17:21:08;8.10;1.00
14517;DHT22;7344;50.864;4.362;2023-03-11T17:23:34;8.10;1.00
14517;DHT22;7344;50.864;4.362;2023-03-11T17:26:00;8.00;1.00
14517;DHT22;7344;50.864;4.362;2023-03-11T17:28:29;7.80;1.00
14517;DHT22;7344;50.864;4.362;2023-03-11T17:30:54;7.80;99.90
14517;DHT22;7344;50.864;4.362;2023-03-11T17:33:20;7.80;99.90
14517;DHT22;7344;50.864;4.362;2023-03-11T17:35:45;7.70;1.00
14517;DHT22;7344;50.864;4.362;2023-03-11T17:38:11;7.80;99.90
14517;DHT22;7344;50.864;4.362;2023-03-11T17:40:37;7.60;1.00
14517;DHT22;7344;50.864;4.362;2023-03-11T17:43:02;7.60;69.50
14517;DHT22;7344;50.864;4.362;2023-03-11T17:45:28;7.50;99.90
14517;DHT22;7344;50.864;4.362;2023-03-11T17:47:54;7.50;58.10
14517;DHT22;7344;50.864;4.362;2023-03-11T17:50:19;7.40;99.90
14517;DHT22;7344;50.864;4.362;2023-03-11T17:52:45;7.40;99.90
14517;DHT22;7344;50.864;4.362;2023-03-11T17:55:11;7.40;1.00
14517;DHT22;7344;50.864;4.362;2023-03-11T17:57:37;7.40;99.90
14517;DHT22;7344;50.864;4.362;2023-03-11T18:00:03;7.30;1.00
14517;DHT22;7344;50.864;4.362;2023-03-11T18:02:32;7.40;1.00
14517;DHT22;7344;50.864;4.362;2023-03-11T18:04:57;7.40;99.90
14517;DHT22;7344;50.864;4.362;2023-03-11T18:07:23;7.40;1.00
14517;DHT22;7344;50.864;4.362;2023-03-11T18:09:51;7.30;1.00
14517;DHT22;7344;50.864;4.362;2023-03-11T18:12:18;7.30;1.00
14517;DHT22;7344;50.864;4.362;2023-03-11T18:14:43;7.30;1.00
14517;DHT22;7344;50.864;4.362;2023-03-11T18:17:09;7.20;1.00
14517;DHT22;7344;50.864;4.362;2023-03-11T18:19:34;7.20;1.00
14517;DHT22;7344;50.864;4.362;2023-03-11T18:22:00;7.10;99.90
14517;DHT22;7344;50.864;4.362;2023-03-11T18:24:26;7.10;1.00
14517;DHT22;7344;50.864;4.362;2023-03-11T18:26:52;7.10;99.90
14517;DHT22;7344;50.864;4.362;2023-03-11T18:29:20;7.10;1.00
14517;DHT22;7344;50.864;4.362;2023-03-11T18:31:46;7.00;1.00